Hopewell Township, New Jersey
Current Conditions -  °F | °C
As of 6:53 PM on Sunday 25 Jan 2015 (Local Time) from KTTN Reporting Station
Overcast Overcast  
Wind Chill:   Ceiling: 4000
Heat Index:   Visibility: 10mi
Dew Point: -2°   Wind: 3mph
Humidity: 68%   Direction: 260°W
Pressure: 29.89"   Gusts: NA
Location:  40.3975°N, 74.7746°W
Report Text: KTTN 252353Z 26003KT 10SM OVC040 03/M02 A2989 RMK AO2 SLP118 T00331022 10061 20028 53027
Loading
Personal Weather Stations






























Interactive Weather Map New forecast layout! Learn more

10-Day Weather Forecast

Advertisements
Track Severe Weather on mobile